Latest Weather Observations for Melbourne (Olympic Park)

IDV60901

Issued at 8:11 pm EST Thursday 30 June 2016 (issued every 10 minutes, with the page automatically refreshed every 10 minutes)

About weather observations | Map of Melbourne area stations | Latest observations for Melbourne area | Other Formats
Station Details ID: 086338 Name: MELBOURNE (OLYMPIC PARK) Lat: -37.83 Lon: 144.98 Height: 7.53 m
Data from the previous 72 hours. | See also: Recent months at Melbourne (Olympic Park)
Date/Time
EST
Temp
°C
App
Temp
°C
Dew
Point
°C
Rel
Hum
%
Delta-T
°C
Wind Press
QNH
hPa
Press
MSL
hPa
Rain since
9am
mm
Dir  Spd
km/h
Gust
km/h
Spd
kts
Gust
kts
30/08:00pm 8.6 5.0 4.8 77 1.7 N 13 19 7 10 1008.3 1008.3 3.4
30/07:30pm 8.6 5.4 5.2 79 1.5 NNE 11 15 6 8 1008.5 1008.5 3.4
30/07:00pm 9.1 5.9 5.3 77 1.7 N 11 17 6 9 1008.3 1008.3 3.4
30/06:30pm 8.4 5.7 5.7 83 1.2 NNE 9 13 5 7 1008.2 1008.2 3.4
30/06:00pm 8.2 5.2 5.8 85 1.1 NNE 11 15 6 8 1007.8 1007.8 3.4
30/05:30pm 7.9 4.9 5.9 87 0.9 N 11 19 6 10 1007.1 1007.1 3.4
30/05:05pm 7.4 4.2 5.0 85 1.1 NNW 11 17 6 9 1008.2 - 3.4
30/05:00pm 7.5 3.9 5.1 85 1.1 NNW 13 22 7 12 1007.4 1007.4 3.2
30/04:35pm 9.7 5.8 7.3 85 1.1 NNW 17 30 9 16 1008.2 - 1.4
30/04:30pm 9.8 6.0 7.4 85 1.1 NNW 17 30 9 16 1007.1 1007.1 0.8
30/04:00pm 10.6 5.2 6.2 74 2.1 N 24 39 13 21 1006.3 1006.3 0.0
30/03:30pm 10.4 4.5 6.0 74 2.0 N 26 37 14 20 1006.2 1006.2 0.0
30/03:00pm 10.7 5.2 5.9 72 2.2 N 24 39 13 21 1006.8 1006.8 0.0
30/02:36pm 10.6 4.4 6.0 73 2.1 N 28 50 15 27 1006.8 1006.8 0.0
30/02:30pm 10.7 5.2 6.1 73 2.1 N 24 39 13 21 1006.8 1006.8 0.0
30/02:08pm 11.1 4.7 5.4 68 2.6 N 28 46 15 25 1007.0 1007.0 0.0
30/02:00pm 11.1 5.6 5.8 70 2.5 N 24 46 13 25 1007.1 1007.1 0.0
30/01:32pm 10.6 4.3 5.8 72 2.2 N 28 46 15 25 1007.4 1007.4 0.0
30/01:30pm 10.6 4.7 5.6 71 2.3 N 26 46 14 25 1007.4 1007.4 0.0
30/01:01pm 10.9 3.8 5.4 69 2.5 N 32 50 17 27 1008.0 1008.0 0.0
30/01:00pm 10.9 3.6 5.4 69 2.5 N 33 50 18 27 1008.1 1008.1 0.0
30/12:30pm 11.5 3.9 5.8 68 2.6 N 35 57 19 31 1008.5 1008.5 0.0
30/12:00pm 10.9 3.5 5.2 68 2.6 N 33 63 18 34 1008.9 1008.9 0.0
30/11:30am 11.2 3.5 5.3 67 2.7 N 35 54 19 29 1009.7 1009.7 0.0
30/11:00am 10.9 3.5 5.2 68 2.6 N 33 54 18 29 1010.7 1010.7 0.0
30/10:30am 10.4 3.2 5.0 69 2.4 N 32 54 17 29 1010.8 1010.8 0.0
30/10:00am 10.4 3.6 5.0 69 2.4 N 30 52 16 28 1011.1 1011.1 0.0
30/09:30am 10.2 3.3 4.8 69 2.4 N 30 54 16 29 1011.5 1011.5 0.0
30/09:23am 10.4 3.9 4.8 68 2.5 N 28 54 15 29 1011.3 1011.3 0.0
30/09:00am 10.4 4.6 4.5 67 2.6 N 24 46 13 25 1011.2 1011.2 0.0
30/08:30am 10.4 3.9 4.8 68 2.5 N 28 43 15 23 1011.7 1011.7 0.0
30/08:00am 10.4 4.3 4.8 68 2.5 N 26 43 14 23 1012.2 1012.2 0.0
30/07:30am 10.5 4.0 4.6 67 2.6 N 28 43 15 23 1012.5 1012.5 0.0
30/07:11am 10.5 3.9 4.4 66 2.7 N 28 46 15 25 1012.7 1012.7 0.0
30/07:00am 10.5 4.7 4.6 67 2.6 N 24 41 13 22 1012.7 1012.7 0.0
30/06:30am 10.8 5.0 4.3 64 2.9 N 24 41 13 22 1013.0 1013.0 0.0
30/06:00am 10.8 5.0 4.5 65 2.8 N 24 41 13 22 1013.2 1013.2 0.0
30/05:32am 10.9 4.3 4.4 64 2.9 N 28 50 15 27 1013.5 1013.5 0.0
30/05:30am 10.9 4.7 4.4 64 2.9 N 26 50 14 27 1013.5 1013.5 0.0
30/05:00am 10.9 4.3 4.4 64 2.9 N 28 46 15 25 1014.0 1014.0 0.0
30/04:37am 10.9 4.4 4.6 65 2.8 N 28 50 15 27 1015.1 - 0.0
30/04:36am 10.9 4.4 4.6 65 2.8 N 28 50 15 27 1014.3 1014.3 0.0
30/04:30am 10.9 4.8 4.6 65 2.8 N 26 50 14 27 1014.3 1014.3 0.0
30/04:14am 10.7 4.2 4.6 66 2.7 N 28 46 15 25 1014.4 1014.4 0.0
30/04:00am 10.6 5.2 4.7 67 2.7 N 22 43 12 23 1014.6 1014.6 0.0
30/03:45am 10.6 4.1 4.9 68 2.6 N 28 46 15 25 1015.8 - 0.0
30/03:44am 10.6 4.1 4.9 68 2.6 N 28 46 15 25 1014.9 1014.9 0.0
30/03:30am 10.5 5.2 4.9 68 2.5 N 22 32 12 17 1015.5 1015.5 0.0
30/03:00am 10.5 5.2 5.1 69 2.4 N 22 39 12 21 1016.3 1016.3 0.0
30/02:30am 10.6 5.3 5.2 69 2.5 N 22 32 12 17 1016.7 1016.7 0.0
30/02:00am 10.9 6.1 5.7 70 2.4 N 20 35 11 19 1017.2 1017.2 0.0
30/01:30am 11.1 5.5 5.6 69 2.5 N 24 43 13 23 1017.2 1017.2 0.0
30/01:00am 11.3 5.4 5.6 68 2.6 NNW 26 41 14 22 1017.6 1017.6 0.0
30/12:30am 11.5 6.7 5.6 67 2.7 NNW 20 33 11 18 1018.2 1018.2 0.0
30/12:00am 11.5 6.7 5.6 67 2.7 N 20 33 11 18 1018.6 1018.6 0.0
 
Date/Time
EST
Temp
°C
App
Temp
°C
Dew
Point
°C
Rel
Hum
%
Delta-T
°C
Wind Press
QNH
hPa
Press
MSL
hPa
Rain since
9am
mm
Dir  Spd
km/h
Gust
km/h
Spd
kts
Gust
kts
29/11:30pm 11.7 6.2 5.8 67 2.7 N 24 35 13 19 1018.9 1018.9 0.0
29/11:00pm 11.8 6.3 5.9 67 2.7 N 24 43 13 23 1018.9 1018.9 0.0
29/10:30pm 11.7 6.2 5.8 67 2.7 N 24 43 13 23 1018.7 1018.7 0.0
29/10:00pm 11.9 7.1 5.8 66 2.8 N 20 33 11 18 1018.8 1018.8 0.0
29/09:30pm 12.1 6.2 5.9 66 2.9 N 26 41 14 22 1019.1 1019.1 0.0
29/09:00pm 12.3 6.9 6.4 67 2.8 N 24 41 13 22 1019.2 1019.2 0.0
29/08:30pm 12.0 8.7 6.5 69 2.6 N 13 20 7 11 1019.6 1019.6 0.0
29/08:00pm 11.9 9.3 6.0 67 2.8 N 9 13 5 7 1020.2 1020.2 0.0
29/07:30pm 11.9 8.5 5.8 66 2.8 N 13 20 7 11 1020.5 1020.5 0.0
29/07:00pm 12.0 8.5 5.6 65 3.0 NNE 13 19 7 10 1020.7 1020.7 0.0
29/06:30pm 12.1 8.7 5.7 65 3.0 N 13 22 7 12 1020.9 1020.9 0.0
29/06:00pm 12.5 8.7 5.7 63 3.2 N 15 22 8 12 1021.1 1021.1 0.0
29/05:30pm 12.7 8.4 5.1 60 3.5 N 17 30 9 16 1021.3 1021.3 0.0
29/05:00pm 13.4 8.4 4.8 56 4.0 N 20 32 11 17 1021.6 1021.6 0.0
29/04:30pm 13.8 9.0 4.7 54 4.2 N 19 32 10 17 1022.0 1022.0 0.0
29/04:00pm 14.2 8.7 4.2 51 4.6 N 22 41 12 22 1022.4 1022.4 0.0
29/03:30pm 14.7 10.0 6.0 56 4.2 N 20 32 11 17 1022.4 1022.4 0.0
29/03:00pm 14.7 10.1 6.5 58 3.9 N 20 35 11 19 1022.5 1022.5 0.0
29/02:30pm 14.8 10.5 6.9 59 3.9 N 19 32 10 17 1022.8 1022.8 0.0
29/02:00pm 14.4 9.6 7.5 63 3.4 NNW 22 32 12 17 1023.2 1023.2 0.0
29/01:30pm 15.2 11.0 7.5 60 3.8 N 19 26 10 14 1023.8 1023.8 0.0
29/01:00pm 15.0 11.1 7.3 60 3.8 NNE 17 28 9 15 1024.3 1024.3 0.0
29/12:30pm 14.6 11.0 8.3 66 3.2 N 17 24 9 13 1024.9 1024.9 0.0
29/12:00pm 13.7 9.6 7.9 68 2.9 NNE 19 26 10 14 1025.5 1025.5 0.0
29/11:30am 14.2 10.9 8.2 67 3.0 NNE 15 24 8 13 1026.2 1026.2 0.0
29/11:00am 13.9 11.0 8.1 68 2.9 N 13 22 7 12 1026.6 1026.6 0.0
29/10:30am 13.3 10.5 8.4 72 2.4 N 13 20 7 11 1026.9 1026.9 0.0
29/10:00am 12.5 9.3 8.4 76 2.0 N 15 22 8 12 1026.9 1026.9 0.0
29/09:30am 11.7 8.5 8.6 81 1.5 N 15 20 8 11 1026.8 1026.8 0.0
29/09:00am 10.7 7.8 8.1 84 1.3 N 13 20 7 11 1026.8 1026.8 0.2
29/08:30am 9.7 6.8 8.0 89 0.8 N 13 20 7 11 1026.7 1026.7 0.2
29/08:00am 9.3 6.7 7.9 91 0.7 N 11 17 6 9 1026.5 1026.5 0.2
29/07:30am 9.0 6.7 7.5 90 0.7 N 9 13 5 7 1026.5 1026.5 0.2
29/07:00am 9.6 5.8 7.7 88 0.9 N 17 20 9 11 1026.3 1026.3 0.2
29/06:30am 9.9 6.1 7.7 86 1.1 N 17 20 9 11 1026.2 1026.2 0.2
29/06:00am 10.1 6.7 7.7 85 1.1 N 15 19 8 10 1025.9 1025.9 0.2
29/05:30am 9.8 6.8 7.9 88 0.9 N 13 17 7 9 1025.9 1025.9 0.2
29/05:00am 9.7 6.7 7.8 88 0.9 N 13 17 7 9 1025.7 1025.7 0.2
29/04:30am 9.9 7.0 8.0 88 0.9 N 13 19 7 10 1025.7 1025.7 0.2
29/04:00am 10.0 7.5 8.3 89 0.8 N 11 15 6 8 1025.7 1025.7 0.2
29/03:30am 10.0 7.1 8.3 89 0.8 N 13 17 7 9 1025.8 1025.8 0.2
29/03:00am 10.0 7.1 8.3 89 0.8 N 13 17 7 9 1025.6 1025.6 0.2
29/02:30am 10.1 7.6 8.2 88 0.9 N 11 19 6 10 1025.6 1025.6 0.2
29/02:00am 10.6 7.8 8.5 87 1.0 N 13 17 7 9 1025.8 1025.8 0.2
29/01:30am 10.7 8.3 8.6 87 1.0 N 11 17 6 9 1025.8 1025.8 0.2
29/01:00am 10.5 8.5 8.6 88 0.9 N 9 13 5 7 1025.9 1025.9 0.0
29/12:30am 10.6 8.6 8.5 87 1.0 N 9 13 5 7 1026.0 1026.0 0.0
29/12:00am 10.6 8.2 8.5 87 1.0 N 11 17 6 9 1026.0 1026.0 0.0
 
Date/Time
EST
Temp
°C
App
Temp
°C
Dew
Point
°C
Rel
Hum
%
Delta-T
°C
Wind Press
QNH
hPa
Press
MSL
hPa
Rain since
9am
mm
Dir  Spd
km/h
Gust
km/h
Spd
kts
Gust
kts
28/11:30pm 10.7 7.9 8.5 86 1.1 N 13 19 7 10 1026.2 1026.2 0.0
28/11:00pm 11.0 7.8 8.6 85 1.2 N 15 20 8 11 1026.3 1026.3 0.0
28/10:30pm 11.0 8.2 8.6 85 1.2 N 13 20 7 11 1026.3 1026.3 0.0
28/10:00pm 11.2 8.5 8.8 85 1.2 N 13 17 7 9 1026.3 1026.3 0.0
28/09:30pm 11.5 8.7 8.7 83 1.4 N 13 19 7 10 1026.3 1026.3 0.0
28/09:00pm 11.3 8.5 8.7 84 1.3 N 13 17 7 9 1026.1 1026.1 0.0
28/08:30pm 11.1 8.2 8.1 82 1.5 N 13 20 7 11 1026.0 1026.0 0.0
28/08:00pm 11.3 8.3 7.6 78 1.8 N 13 20 7 11 1025.8 1025.8 0.0
28/07:30pm 11.6 8.6 7.5 76 2.0 N 13 17 7 9 1025.8 1025.8 0.0
28/07:00pm 11.7 8.7 7.6 76 2.0 N 13 22 7 12 1025.5 1025.5 0.0
28/06:30pm 11.9 9.3 7.8 76 2.0 N 11 17 6 9 1025.3 1025.3 0.0
28/06:00pm 12.2 9.2 7.9 75 2.1 N 13 20 7 11 1024.9 1024.9 0.0
28/05:30pm 12.3 8.6 8.0 75 2.1 N 17 24 9 13 1024.5 1024.5 0.0
28/05:00pm 12.9 10.0 8.2 73 2.3 N 13 20 7 11 1024.3 1024.3 0.0
28/04:30pm 13.4 10.6 8.5 72 2.4 N 13 19 7 10 1024.0 1024.0 0.0
28/04:00pm 15.6 13.3 7.6 59 4.0 NW 9 19 5 10 1023.8 1023.8 0.0
28/03:30pm 15.2 12.7 8.4 64 3.4 N 11 19 6 10 1023.6 1023.6 0.0
28/03:00pm 16.1 13.8 7.3 56 4.3 NW 9 13 5 7 1023.5 1023.5 0.0
28/02:30pm 14.7 12.3 8.6 67 3.1 N 11 15 6 8 1023.5 1023.5 0.0
28/02:00pm 15.6 12.9 8.8 64 3.5 N 13 17 7 9 1023.3 1023.3 0.0
28/01:30pm 15.5 13.1 8.5 63 3.5 NNW 11 15 6 8 1023.3 1023.3 0.0
28/01:00pm 15.1 12.3 8.6 65 3.3 N 13 19 7 10 1023.6 1023.6 0.0
28/12:30pm 14.4 11.9 8.1 66 3.1 N 11 20 6 11 1023.6 1023.6 0.0
28/12:00pm 13.6 9.8 7.4 66 3.0 N 17 22 9 12 1023.9 1023.9 0.0
28/11:30am 13.5 10.4 7.3 66 3.0 N 13 20 7 11 1024.1 1024.1 0.0
28/11:00am 13.3 9.8 7.3 67 2.9 N 15 20 8 11 1024.1 1024.1 0.0
28/10:30am 12.9 9.7 6.9 67 2.9 N 13 20 7 11 1024.2 1024.2 0.0
28/10:00am 11.5 9.1 6.8 73 2.2 N 9 17 5 9 1024.2 1024.2 0.0
28/09:30am 10.5 8.3 6.3 75 2.0 N 7 13 4 7 1024.0 1024.0 0.0
28/09:00am 9.7 7.1 5.9 77 1.7 N 9 15 5 8 1023.7 1023.7 0.2
28/08:30am 8.5 5.5 5.8 83 1.2 N 11 17 6 9 1023.5 1023.5 0.2
28/08:00am 8.5 5.4 5.4 81 1.4 NNE 11 17 6 9 1023.3 1023.3 0.2
28/07:30am 8.6 5.9 5.5 81 1.4 N 9 15 5 8 1023.0 1023.0 0.2
28/07:00am 8.4 6.1 5.5 82 1.3 N 7 13 4 7 1022.8 1022.8 0.2
28/06:30am 8.1 5.7 5.2 82 1.3 N 7 13 4 7 1022.5 1022.5 0.2
28/06:00am 8.0 4.8 5.1 82 1.3 N 11 15 6 8 1022.2 1022.2 0.2
28/05:30am 7.5 4.3 5.0 84 1.1 N 11 15 6 8 1022.0 1022.0 0.2
28/05:00am 7.2 4.0 5.0 86 1.0 N 11 15 6 8 1021.9 1021.9 0.2
28/04:30am 7.0 4.2 5.0 87 0.9 N 9 15 5 8 1021.7 1021.7 0.2
28/04:00am 6.3 4.0 4.8 90 0.6 NNE 6 11 3 6 1021.6 1021.6 0.2
28/03:30am 6.3 3.4 4.5 88 0.8 NNE 9 11 5 6 1021.7 1021.7 0.2
28/03:00am 5.2 3.9 4.2 93 0.4 CALM 0 6 0 3 1021.6 1021.6 0.2
28/02:30am 5.4 3.4 4.4 93 0.4 E 4 7 2 4 1021.7 1021.7 0.2
28/02:00am 5.4 4.1 4.2 92 0.5 CALM 0 0 0 0 1021.6 1021.6 0.2
28/01:30am 6.5 4.1 4.5 87 0.9 N 6 9 3 5 1021.4 1021.4 0.2
28/01:00am 6.2 3.9 4.7 90 0.6 NE 6 7 3 4 1021.4 1021.4 0.2
28/12:30am 6.3 4.0 4.8 90 0.7 NNW 6 11 3 6 1021.5 1021.5 0.2
28/12:00am 6.8 4.9 5.1 89 0.7 NNW 4 7 2 4 1021.4 1021.4 0.2
 
Date/Time
EST
Temp
°C
App
Temp
°C
Dew
Point
°C
Rel
Hum
%
Delta-T
°C
Wind Press
QNH
hPa
Press
MSL
hPa
Rain since
9am
mm
Dir  Spd
km/h
Gust
km/h
Spd
kts
Gust
kts
27/11:30pm 7.1 5.0 5.6 90 0.7 NNW 6 9 3 5 1021.3 1021.3 0.2
27/11:00pm 6.9 5.5 5.5 91 0.6 NE 2 7 1 4 1021.3 1021.3 0.2
27/10:30pm 8.0 5.8 6.1 88 0.9 N 7 13 4 7 1021.2 1021.2 0.2
27/10:00pm 8.1 5.7 6.9 92 0.6 NNW 9 13 5 7 1021.1 1021.1 0.2
27/09:30pm 7.5 6.5 7.4 99 0.0 N 2 7 1 4 1020.9 1020.9 0.2
27/09:00pm 7.8 6.1 7.5 98 0.1 NNW 6 13 3 7 1020.7 1020.7 0.2
27/08:30pm 7.2 6.5 6.9 98 0.1 CALM 0 2 0 1 1020.6 1020.6 0.2

Latest Capital City Observations: Canberra | Sydney | Melbourne | Brisbane | Adelaide | Perth | Hobart | Darwin

Other Formats:

Comma delimited format used in spreadsheet applications
http://www.bom.gov.au/fwo/IDV60901/IDV60901.95936.axf

JavaScript Object Notation format (JSON) in row-major order
http://www.bom.gov.au/fwo/IDV60901/IDV60901.95936.json